Time;durP1;ratioP1;P1;durP2;ratioP2;P2;SDS_P1;SDS_P2;PMS_P1;PMS_P2;Temp;Humidity;BMP_temperature;BMP_pressure;BME280_temperature;BME280_humidity;BME280_pressure;Samples;Min_cycle;Max_cycle;Signal;HPM_P1;HPM_P2
2021/01/26 00:08:04;;;;;;;10.82;4.68;;;2.30;99.90;;;;;;6716393;88;20232;-73
2021/01/26 00:18:05;;;;;;;11.73;4.55;;;2.40;99.90;;;;;;6716730;88;20212;-73
2021/01/26 00:28:08;;;;;;;13.50;5.00;;;2.60;99.90;;;;;;6717960;88;20181;-71
2021/01/26 00:38:09;;;;;;;12.75;4.78;;;2.70;99.90;;;;;;6714403;88;20982;-73
2021/01/26 00:48:10;;;;;;;13.18;5.07;;;2.90;99.90;;;;;;6716240;88;20158;-72
2021/01/26 00:58:13;;;;;;;11.65;5.03;;;2.90;99.90;;;;;;6716303;88;20218;-73
2021/01/26 01:08:13;;;;;;;11.10;4.72;;;2.90;99.90;;;;;;6715359;88;20178;-73
2021/01/26 01:18:14;;;;;;;14.43;5.22;;;2.90;99.90;;;;;;6717725;88;20219;-71
2021/01/26 01:28:15;;;;;;;12.60;5.43;;;3.00;99.90;;;;;;6718064;88;20194;-72
2021/01/26 01:38:16;;;;;;;16.95;5.05;;;3.10;99.90;;;;;;6712803;88;20622;-71
2021/01/26 01:48:23;;;;;;;10.35;4.90;;;3.10;99.90;;;;;;6715021;88;20779;-72
2021/01/26 01:58:44;;;;;;;11.15;4.90;;;3.20;99.90;;;;;;6717852;88;20182;-73
2021/01/26 02:09:02;;;;;;;10.13;3.58;;;3.20;99.90;;;;;;6716491;88;20182;-73
2021/01/26 02:19:33;;;;;;;13.35;4.57;;;3.30;99.90;;;;;;6716812;88;20418;-72
2021/01/26 02:30:08;;;;;;;11.10;4.12;;;3.40;99.90;;;;;;6713069;88;20683;-72
2021/01/26 02:40:21;;;;;;;10.43;3.92;;;3.30;99.90;;;;;;6715026;88;20210;-73
2021/01/26 02:50:30;;;;;;;8.18;3.25;;;3.30;99.90;;;;;;6715621;88;20229;-73
2021/01/26 03:00:34;;;;;;;8.77;4.20;;;3.40;99.90;;;;;;6715358;88;20215;-73
2021/01/26 03:10:44;;;;;;;11.80;4.62;;;3.30;99.90;;;;;;6715454;88;20206;-73
2021/01/26 03:20:51;;;;;;;11.75;4.55;;;3.30;99.90;;;;;;6714500;88;20697;-73
2021/01/26 03:30:55;;;;;;;;;;;3.30;99.90;;;;;;6715125;88;20271;-73
2021/01/26 03:40:59;;;;;;;10.68;3.25;;;3.30;99.90;;;;;;6715740;88;20103;-73
2021/01/26 03:51:29;;;;;;;11.57;4.15;;;3.30;99.90;;;;;;6715643;88;20173;-73
2021/01/26 04:01:55;;;;;;;8.50;3.97;;;3.20;99.90;;;;;;6715356;88;20182;-73
2021/01/26 04:12:04;;;;;;;8.43;3.70;;;3.30;99.90;;;;;;6716009;88;20220;-73
2021/01/26 04:22:07;;;;;;;10.25;4.07;;;3.20;99.90;;;;;;6714843;88;20186;-73
2021/01/26 04:32:08;;;;;;;14.57;4.25;;;3.20;99.90;;;;;;6718509;88;20185;-73
2021/01/26 04:42:19;;;;;;;9.70;3.65;;;3.30;99.90;;;;;;6717179;88;20228;-74
2021/01/26 04:52:35;;;;;;;8.95;3.78;;;3.30;99.90;;;;;;6722839;88;20313;-73
2021/01/26 05:02:54;;;;;;;10.30;3.67;;;3.30;99.90;;;;;;6716192;88;20174;-73
2021/01/26 05:12:59;;;;;;;9.40;3.53;;;3.30;99.90;;;;;;6714761;88;20193;-73
2021/01/26 05:23:12;;;;;;;7.37;3.12;;;3.40;99.90;;;;;;6715415;88;20246;-73
2021/01/26 05:33:14;;;;;;;7.25;3.25;;;3.40;99.90;;;;;;6712926;88;21102;-73
2021/01/26 05:43:18;;;;;;;10.07;3.37;;;3.40;99.90;;;;;;6713118;88;20189;-73
2021/01/26 05:53:29;;;;;;;5.87;2.97;;;3.40;99.90;;;;;;6714937;88;20202;-73
2021/01/26 06:03:31;;;;;;;7.32;3.70;;;3.30;99.90;;;;;;6715234;88;21008;-73
2021/01/26 06:13:31;;;;;;;8.68;3.53;;;3.20;99.90;;;;;;6716143;88;20279;-73
2021/01/26 06:23:33;;;;;;;15.10;4.20;;;3.10;99.90;;;;;;6719477;88;20249;-73
2021/01/26 06:34:05;;;;;;;12.82;4.30;;;3.10;99.90;;;;;;6718767;88;20265;-73
2021/01/26 06:44:16;;;;;;;8.18;3.22;;;3.10;99.90;;;;;;6715249;88;20684;-73
2021/01/26 06:54:38;;;;;;;9.40;3.58;;;3.00;99.90;;;;;;6716869;88;20786;-73
2021/01/26 07:05:09;;;;;;;8.23;3.28;;;2.90;99.90;;;;;;6718367;88;20210;-72
2021/01/26 07:15:29;;;;;;;8.20;2.83;;;3.00;99.90;;;;;;6717383;88;20276;-71
2021/01/26 07:26:04;;;;;;;5.85;3.22;;;2.90;99.90;;;;;;6703417;88;20732;-72
2021/01/26 07:36:15;;;;;;;10.43;3.33;;;2.90;99.90;;;;;;6699717;88;20190;-72
2021/01/26 07:46:27;;;;;;;7.47;3.40;;;3.00;99.90;;;;;;6697570;88;20199;-73
2021/01/26 07:56:37;;;;;;;12.73;3.60;;;2.80;99.90;;;;;;6695319;88;20219;-75
2021/01/26 08:06:40;;;;;;;11.50;3.65;;;2.80;99.90;;;;;;6699399;88;20446;-74
2021/01/26 08:16:51;;;;;;;8.10;2.62;;;3.10;99.90;;;;;;6700246;88;20247;-74
2021/01/26 08:26:55;;;;;;;8.13;2.17;;;3.10;99.90;;;;;;6699841;88;20179;-74
2021/01/26 08:37:07;;;;;;;10.80;2.22;;;3.20;99.90;;;;;;6700035;88;20414;-73
2021/01/26 08:47:40;;;;;;;8.68;2.45;;;3.40;99.90;;;;;;6702626;88;20182;-71
2021/01/26 08:57:43;;;;;;;10.07;2.50;;;3.50;99.90;;;;;;6699860;88;20247;-70
2021/01/26 09:07:55;;;;;;;5.70;2.60;;;3.50;99.90;;;;;;6701237;88;20206;-73
2021/01/26 09:17:58;;;;;;;6.68;2.30;;;3.70;99.90;;;;;;6702043;88;20309;-73
2021/01/26 09:28:10;;;;;;;8.68;2.45;;;4.30;99.90;;;;;;6698495;88;20273;-73
2021/01/26 09:38:19;;;;;;;9.10;2.78;;;4.00;99.90;;;;;;6704571;88;20667;-72
2021/01/26 09:48:28;;;;;;;9.48;3.08;;;4.00;99.90;;;;;;6703008;88;20226;-72
2021/01/26 09:58:28;;;;;;;10.45;2.85;;;4.00;99.90;;;;;;6702446;88;20601;-72
2021/01/26 10:08:32;;;;;;;6.82;2.37;;;4.30;99.90;;;;;;6700282;88;20252;-75
2021/01/26 10:18:32;;;;;;;8.32;2.47;;;4.30;99.90;;;;;;6705045;88;20773;-72
2021/01/26 10:28:33;;;;;;;7.65;2.33;;;4.40;99.90;;;;;;6703471;88;20215;-71
2021/01/26 10:38:42;;;;;;;10.83;2.17;;;5.10;99.90;;;;;;6703767;88;20212;-73
2021/01/26 10:48:43;;;;;;;7.78;2.35;;;5.60;99.90;;;;;;6701476;88;20993;-72
2021/01/26 10:58:45;;;;;;;10.70;2.25;;;5.50;99.90;;;;;;6701192;88;20241;-74
2021/01/26 11:08:47;;;;;;;7.47;2.60;;;5.60;99.90;;;;;;6700299;88;20662;-72
2021/01/26 11:18:48;;;;;;;10.57;2.15;;;5.60;99.90;;;;;;6700275;88;20330;-72
2021/01/26 11:28:49;;;;;;;5.35;2.10;;;5.30;99.90;;;;;;6699088;88;20186;-74
2021/01/26 11:38:50;;;;;;;8.25;1.98;;;5.30;99.90;;;;;;6700419;88;20218;-74
2021/01/26 11:48:51;;;;;;;5.18;2.15;;;5.00;99.90;;;;;;6698758;88;20325;-73
2021/01/26 11:58:51;;;;;;;9.10;1.92;;;5.00;99.90;;;;;;6699050;88;20377;-73
2021/01/26 12:08:52;;;;;;;7.70;2.20;;;4.80;99.90;;;;;;6697667;88;20306;-73
2021/01/26 12:18:52;;;;;;;9.15;2.30;;;4.60;99.90;;;;;;6698612;88;20687;-74
2021/01/26 12:28:53;;;;;;;9.00;2.43;;;4.60;99.90;;;;;;6698160;88;20186;-72
2021/01/26 12:38:53;;;;;;;5.65;1.98;;;4.60;99.90;;;;;;6697904;88;20671;-73
2021/01/26 12:48:54;;;;;;;8.32;2.40;;;4.50;99.90;;;;;;6700792;88;20231;-74
2021/01/26 12:58:54;;;;;;;6.63;2.40;;;4.50;99.90;;;;;;6699822;88;20190;-74
2021/01/26 13:08:55;;;;;;;7.18;2.12;;;4.60;99.90;;;;;;6700896;88;20518;-73
2021/01/26 13:28:59;;;;;;;8.20;2.20;;;4.80;99.90;;;;;;6642828;88;20233;-74
2021/01/26 13:38:59;;;;;;;6.07;2.15;;;4.80;99.90;;;;;;6631844;88;20214;-74
2021/01/26 13:49:00;;;;;;;7.18;2.30;;;5.60;99.90;;;;;;6632626;88;20992;-74
2021/01/26 13:59:01;;;;;;;9.30;2.40;;;5.60;99.90;;;;;;6633713;88;20232;-73
2021/01/26 14:09:03;;;;;;;6.00;2.05;;;5.40;99.90;;;;;;6639073;88;20965;-73
2021/01/26 14:19:05;;;;;;;6.95;2.20;;;5.70;99.90;;;;;;6631537;88;20190;-73
2021/01/26 14:29:06;;;;;;;6.47;2.30;;;5.10;99.90;;;;;;6633291;88;22213;-74
2021/01/26 14:39:06;;;;;;;5.20;2.28;;;4.90;99.90;;;;;;6634836;88;20253;-74
2021/01/26 14:49:07;;;;;;;6.20;2.45;;;4.80;99.90;;;;;;6624315;88;20194;-74
2021/01/26 14:59:08;;;;;;;7.50;2.58;;;4.80;99.90;;;;;;6618892;88;21420;-73
2021/01/26 15:09:10;;;;;;;6.50;2.05;;;4.80;99.90;;;;;;6623940;88;20277;-73
2021/01/26 15:19:11;;;;;;;9.35;1.90;;;4.70;99.90;;;;;;6624067;88;20239;-73
2021/01/26 15:29:12;;;;;;;5.82;1.90;;;4.70;99.90;;;;;;6626516;88;20197;-73
2021/01/26 15:39:15;;;;;;;6.20;1.73;;;4.70;99.90;;;;;;6629837;88;20195;-73
2021/01/26 15:49:15;;;;;;;11.55;1.90;;;4.70;99.90;;;;;;6636135;88;20227;-73
2021/01/26 15:59:16;;;;;;;4.00;1.73;;;4.60;99.90;;;;;;6632157;88;20179;-73
2021/01/26 16:09:16;;;;;;;5.32;2.33;;;4.50;99.90;;;;;;6628473;88;20198;-73
2021/01/26 16:19:18;;;;;;;5.37;2.15;;;4.40;99.90;;;;;;6635978;88;20258;-72
2021/01/26 16:29:18;;;;;;;5.12;2.12;;;4.40;99.90;;;;;;6635929;88;20214;-74
2021/01/26 16:39:20;;;;;;;5.43;2.43;;;4.20;99.90;;;;;;6630580;88;20594;-73
2021/01/26 16:49:21;;;;;;;6.70;2.60;;;3.70;99.90;;;;;;6625862;88;20540;-73
2021/01/26 16:59:21;;;;;;;6.78;2.20;;;3.60;99.90;;;;;;6624713;88;20211;-73
2021/01/26 17:09:23;;;;;;;9.55;2.72;;;3.40;99.90;;;;;;6630685;88;20206;-73
2021/01/26 17:19:23;;;;;;;5.18;2.37;;;3.20;99.90;;;;;;6633144;88;20218;-74
2021/01/26 17:29:24;;;;;;;4.07;2.00;;;3.20;99.90;;;;;;6621674;88;20200;-71
2021/01/26 17:39:25;;;;;;;8.32;2.50;;;3.20;99.90;;;;;;6617349;88;20706;-71
2021/01/26 17:49:26;;;;;;;6.32;2.65;;;3.10;99.90;;;;;;6619009;88;21526;-72
2021/01/26 17:59:26;;;;;;;7.90;2.50;;;3.10;99.90;;;;;;6624667;88;20684;-74
2021/01/26 18:09:27;;;;;;;6.97;2.20;;;3.00;99.90;;;;;;6627434;88;20315;-72
2021/01/26 18:19:27;;;;;;;7.20;2.05;;;3.00;99.90;;;;;;6635679;88;20780;-73
2021/01/26 18:29:28;;;;;;;7.28;3.00;;;3.00;99.90;;;;;;6625751;88;20186;-74
2021/01/26 18:39:29;;;;;;;6.47;2.35;;;2.80;99.90;;;;;;6627116;88;20733;-74
2021/01/26 18:49:30;;;;;;;4.07;2.08;;;2.90;99.90;;;;;;6627068;88;20243;-74
2021/01/26 18:59:31;;;;;;;7.00;2.50;;;2.90;99.90;;;;;;6643840;88;20219;-74
2021/01/26 19:09:33;;;;;;;5.72;2.40;;;2.90;99.90;;;;;;6622594;88;20186;-74
2021/01/26 19:19:34;;;;;;;5.80;2.20;;;2.80;99.90;;;;;;6617154;88;20626;-73
2021/01/26 19:29:35;;;;;;;5.85;1.90;;;2.80;99.90;;;;;;6638340;78;20626;-72
2021/01/26 19:39:45;;;;;;;5.00;2.10;;;2.80;99.90;;;;;;6657875;88;20243;-72
2021/01/26 19:49:55;;;;;;;3.95;1.87;;;2.80;99.90;;;;;;6654757;85;30967;-74
2021/01/26 19:59:56;;;;;;;6.12;3.12;;;2.60;99.90;;;;;;6683510;88;20272;-74
2021/01/26 20:09:57;;;;;;;6.75;2.80;;;2.50;99.90;;;;;;6684617;88;20275;-73
2021/01/26 20:19:58;;;;;;;7.65;3.03;;;2.40;99.90;;;;;;6685664;88;20184;-73
2021/01/26 20:29:58;;;;;;;6.97;3.17;;;2.40;99.90;;;;;;6686095;88;20223;-74
2021/01/26 20:39:59;;;;;;;6.82;3.12;;;2.40;99.90;;;;;;6684899;88;20183;-73
2021/01/26 20:49:59;;;;;;;7.32;3.05;;;2.40;99.90;;;;;;6684213;88;20183;-74
2021/01/26 21:00:00;;;;;;;8.98;3.03;;;2.40;99.90;;;;;;6684274;88;20299;-74
2021/01/26 21:10:01;;;;;;;8.40;2.83;;;2.40;99.90;;;;;;6683557;88;20307;-74
2021/01/26 21:20:04;;;;;;;7.20;2.92;;;2.30;99.90;;;;;;6682489;88;20611;-75
2021/01/26 21:30:12;;;;;;;10.93;3.45;;;2.30;99.90;;;;;;6685411;88;20971;-73
2021/01/26 21:40:16;;;;;;;6.22;3.65;;;2.30;99.90;;;;;;6687296;88;20180;-75
2021/01/26 21:50:16;;;;;;;6.93;3.70;;;2.20;99.90;;;;;;6687323;88;21050;-74
2021/01/26 22:00:18;;;;;;;5.95;3.15;;;2.10;99.90;;;;;;6684084;88;20228;-74
2021/01/26 22:10:18;;;;;;;6.60;3.35;;;2.20;99.90;;;;;;6685367;88;20202;-73
2021/01/26 22:20:21;;;;;;;5.15;2.92;;;2.30;99.90;;;;;;6690495;88;20252;-74
2021/01/26 22:30:24;;;;;;;8.57;3.10;;;2.30;99.90;;;;;;6686539;88;20183;-73
2021/01/26 22:40:29;;;;;;;6.35;3.10;;;2.30;99.90;;;;;;6692778;88;20744;-73
2021/01/26 22:50:30;;;;;;;5.70;2.92;;;2.40;99.90;;;;;;6686477;88;20639;-73
2021/01/26 23:00:41;;;;;;;6.15;3.20;;;2.30;99.90;;;;;;6685131;88;20196;-73
2021/01/26 23:10:44;;;;;;;5.78;2.95;;;2.30;99.90;;;;;;6687315;88;20204;-73
2021/01/26 23:20:45;;;;;;;6.43;3.40;;;2.20;99.90;;;;;;6685957;88;20257;-73
2021/01/26 23:30:47;;;;;;;6.93;3.33;;;2.10;99.90;;;;;;6686860;88;20243;-73
2021/01/26 23:40:49;;;;;;;7.95;3.72;;;2.00;99.90;;;;;;6686036;88;20199;-73
2021/01/26 23:50:51;;;;;;;5.82;3.53;;;2.00;99.90;;;;;;6685195;88;20187;-74
